Time;durP1;ratioP1;P1;durP2;ratioP2;P2;SDS_P1;SDS_P2;PMS_P1;PMS_P2;Temp;Humidity;BMP_temperature;BMP_pressure;BME280_temperature;BME280_humidity;BME280_pressure;Samples;Min_cycle;Max_cycle;Signal;HPM_P1;HPM_P2
2021/10/17 00:00:31;;;;;;;10.60;5.63;;;3.00;99.90;;;1.05;100.00;101711.78;2570487;30;138526;-38
2021/10/17 00:02:59;;;;;;;10.27;6.40;;;3.00;99.90;;;1.04;100.00;101708.25;2568668;30;136785;-38
2021/10/17 00:05:32;;;;;;;10.85;5.68;;;3.00;99.90;;;1.04;100.00;101707.38;2568881;30;137206;-38
2021/10/17 00:08:01;;;;;;;10.52;5.95;;;2.90;99.90;;;1.02;100.00;101709.34;2571195;30;136781;-38
2021/10/17 00:10:34;;;;;;;11.93;6.13;;;2.90;99.90;;;0.93;100.00;101706.47;2569800;30;137062;-38
2021/10/17 00:13:06;;;;;;;11.07;6.30;;;2.90;99.90;;;0.97;100.00;101713.28;2568735;30;138920;-38
2021/10/17 00:15:38;;;;;;;12.05;6.00;;;2.90;99.90;;;0.98;100.00;101716.84;2567829;30;137461;-38
2021/10/17 00:18:10;;;;;;;11.93;6.78;;;2.90;99.90;;;0.96;100.00;101716.94;2567024;30;137597;-38
2021/10/17 00:20:39;;;;;;;14.77;7.30;;;2.90;99.90;;;0.98;100.00;101709.63;2569674;30;138931;-38
2021/10/17 00:23:07;;;;;;;11.35;6.43;;;2.90;99.90;;;1.04;100.00;101718.13;2566451;30;137445;-38
2021/10/17 00:25:36;;;;;;;13.77;6.82;;;3.00;99.90;;;1.06;100.00;101718.88;2567139;30;138576;-38
2021/10/17 00:28:04;;;;;;;11.50;5.97;;;2.90;99.90;;;1.05;100.00;101730.59;2570482;30;137702;-38
2021/10/17 00:30:38;;;;;;;12.35;6.05;;;3.00;99.90;;;1.04;100.00;101729.75;2567499;30;140849;-38
2021/10/17 00:33:06;;;;;;;12.93;6.18;;;3.00;99.90;;;1.01;100.00;101732.72;2566774;30;140678;-38
2021/10/17 00:35:35;;;;;;;9.38;5.90;;;3.00;99.90;;;0.99;100.00;101735.50;2569517;30;138318;-38
2021/10/17 00:38:04;;;;;;;10.90;6.28;;;2.90;99.90;;;0.98;100.00;101733.81;2567039;30;137834;-38
2021/10/17 00:40:34;;;;;;;9.20;5.32;;;2.90;99.90;;;0.95;100.00;101734.06;2569170;30;139008;-38
2021/10/17 00:43:02;;;;;;;;;;;2.90;99.90;;;0.94;100.00;101732.34;2568160;30;139079;-38
2021/10/17 00:45:34;;;;;;;13.70;6.40;;;2.90;99.90;;;0.92;100.00;101730.75;2572139;30;138394;-38
2021/10/17 00:48:04;;;;;;;11.38;5.95;;;2.90;99.90;;;0.90;100.00;101725.53;2569197;30;137323;-38
2021/10/17 00:50:32;;;;;;;10.30;5.93;;;2.80;99.90;;;0.89;100.00;101731.88;2569180;30;139288;-38
2021/10/17 00:53:03;;;;;;;9.95;5.93;;;2.80;99.90;;;0.89;100.00;101729.19;2568916;30;137521;-37
2021/10/17 00:55:31;;;;;;;12.25;6.25;;;2.80;99.90;;;0.89;100.00;101725.63;2570226;30;138316;-38
2021/10/17 00:58:17;;;;;;;10.43;6.22;;;2.80;99.90;;;0.88;100.00;101730.19;2566733;30;137215;-38
2021/10/17 01:00:45;;;;;;;13.18;6.00;;;2.80;99.90;;;0.84;100.00;101726.03;2569749;30;138680;-38
2021/10/17 01:03:12;;;;;;;10.15;5.32;;;2.80;99.90;;;0.82;100.00;101725.31;2570186;30;138394;-38
2021/10/17 01:05:40;;;;;;;12.02;6.35;;;2.70;99.90;;;0.83;100.00;101729.72;2568542;30;137370;-38
2021/10/17 01:08:08;;;;;;;15.98;7.15;;;2.80;99.90;;;0.83;100.00;101732.41;2569873;30;138918;-38
2021/10/17 01:10:35;;;;;;;11.52;6.30;;;2.80;99.90;;;0.86;100.00;101734.81;2567886;30;140050;-38
2021/10/17 01:13:03;;;;;;;11.95;6.38;;;2.80;99.90;;;0.87;100.00;101736.53;2565155;30;136946;-38
2021/10/17 01:15:34;;;;;;;11.15;6.35;;;2.70;99.90;;;0.81;100.00;101729.00;2571701;30;138038;-38
2021/10/17 01:18:02;;;;;;;10.60;6.13;;;2.70;99.90;;;0.77;100.00;101728.38;2567378;30;139710;-38
2021/10/17 01:20:30;;;;;;;;;;;2.70;99.90;;;0.75;100.00;101729.47;2570619;30;138358;-38
2021/10/17 01:22:59;;;;;;;9.57;6.07;;;2.70;99.90;;;0.73;100.00;101731.44;2570240;30;138952;-38
2021/10/17 01:25:26;;;;;;;10.95;5.55;;;2.60;99.90;;;0.72;100.00;101730.59;2569431;30;140348;-38
2021/10/17 01:27:54;;;;;;;11.77;5.72;;;2.60;99.90;;;0.71;100.00;101727.03;2569980;30;138877;-38
2021/10/17 01:30:22;;;;;;;10.27;5.95;;;2.60;99.90;;;0.70;100.00;101727.19;2566304;30;139428;-38
2021/10/17 01:32:50;;;;;;;10.70;5.95;;;2.60;99.90;;;0.67;100.00;101722.91;2570472;30;136701;-38
2021/10/17 01:35:17;;;;;;;9.63;5.70;;;2.60;99.90;;;0.65;100.00;101723.97;2569323;30;138661;-38
2021/10/17 01:37:45;;;;;;;10.32;5.68;;;2.60;99.90;;;0.64;100.00;101723.16;2572086;30;137510;-38
2021/10/17 01:40:15;;;;;;;9.88;5.70;;;2.60;99.90;;;0.57;100.00;101714.72;2565830;30;139987;-38
2021/10/17 01:42:43;;;;;;;11.10;5.80;;;2.50;99.90;;;0.62;100.00;101717.06;2569883;30;137692;-38
2021/10/17 01:45:12;;;;;;;9.85;5.97;;;2.50;99.90;;;0.60;100.00;101716.31;2571747;30;140339;-38
2021/10/17 01:47:49;;;;;;;11.23;6.00;;;2.50;99.90;;;0.58;100.00;101712.91;2569454;30;138091;-38
2021/10/17 01:50:20;;;;;;;11.15;5.80;;;2.50;99.90;;;0.59;100.00;101722.69;2569076;30;138332;-38
2021/10/17 01:52:48;;;;;;;8.65;5.57;;;2.50;99.90;;;0.58;100.00;101710.22;2570847;30;138253;-38
2021/10/17 01:55:16;;;;;;;9.75;5.95;;;2.50;99.90;;;0.62;100.00;101705.44;2568936;30;139230;-38
2021/10/17 01:57:44;;;;;;;11.82;5.97;;;2.50;99.90;;;0.65;100.00;101708.75;2570143;30;138635;-38
2021/10/17 02:00:15;;;;;;;11.18;5.95;;;2.50;99.90;;;0.64;100.00;101711.53;2569147;30;138233;-38
2021/10/17 02:02:46;;;;;;;10.80;5.97;;;2.60;99.90;;;0.55;100.00;101689.84;2570652;30;139288;-38
2021/10/17 02:05:20;;;;;;;10.63;5.47;;;2.50;99.90;;;0.65;100.00;101708.75;2571143;30;139055;-38
2021/10/17 02:07:49;;;;;;;9.32;5.75;;;2.60;99.90;;;0.63;100.00;101705.31;2569542;30;139626;-38
2021/10/17 02:10:16;;;;;;;8.75;4.85;;;2.50;99.90;;;0.64;100.00;101701.66;2567824;30;138279;-38
2021/10/17 02:12:44;;;;;;;11.93;5.68;;;2.50;99.90;;;0.62;100.00;101697.38;2570445;30;140690;-39
2021/10/17 02:15:13;;;;;;;9.68;5.72;;;2.60;99.90;;;0.62;100.00;101700.94;2567469;30;139697;-39
2021/10/17 02:17:43;;;;;;;9.77;5.22;;;2.50;99.90;;;0.60;100.00;101694.84;2568324;30;140083;-39
2021/10/17 02:20:12;;;;;;;8.77;5.00;;;2.50;99.90;;;0.62;100.00;101694.69;2569116;30;139678;-39
2021/10/17 02:22:41;;;;;;;11.20;5.68;;;2.50;99.90;;;0.59;100.00;101693.13;2567373;30;137473;-39
2021/10/17 02:25:10;;;;;;;12.15;5.38;;;2.50;99.90;;;0.55;100.00;101686.31;2567941;30;139881;-39
2021/10/17 02:27:38;;;;;;;10.85;5.55;;;2.50;99.90;;;0.54;100.00;101688.13;2568312;30;137387;-39
2021/10/17 02:30:08;;;;;;;9.40;5.40;;;2.50;99.90;;;0.55;100.00;101689.00;2567259;30;140455;-39
2021/10/17 02:32:55;;;;;;;7.97;5.10;;;2.40;99.90;;;0.53;100.00;101682.88;2567720;30;137430;-39
2021/10/17 02:35:29;;;;;;;10.57;5.40;;;2.40;99.90;;;0.51;100.00;101674.09;2566842;30;139590;-39
2021/10/17 02:37:57;;;;;;;9.45;5.30;;;2.40;99.90;;;0.50;100.00;101677.75;2565852;30;137421;-39
2021/10/17 02:40:30;;;;;;;9.13;4.93;;;2.40;99.90;;;0.41;100.00;101664.09;2567086;30;140514;-39
2021/10/17 02:42:58;;;;;;;9.77;5.50;;;2.40;99.90;;;0.47;100.00;101673.50;2567941;30;136922;-39
2021/10/17 02:45:25;;;;;;;9.82;5.75;;;2.40;99.90;;;0.46;100.00;101676.31;2568896;30;138787;-39
2021/10/17 02:47:53;;;;;;;9.88;5.43;;;2.40;99.90;;;0.45;100.00;101679.97;2567449;30;139174;-39
2021/10/17 02:50:21;;;;;;;10.73;4.88;;;2.40;99.90;;;0.44;100.00;101676.44;2567642;30;140711;-39
2021/10/17 02:52:50;;;;;;;12.00;5.50;;;2.40;99.90;;;0.43;100.00;101675.56;2566811;30;136953;-39
2021/10/17 02:55:22;;;;;;;10.90;5.35;;;2.30;99.90;;;0.44;100.00;101679.13;2568219;30;139374;-39
2021/10/17 02:57:50;;;;;;;7.35;4.78;;;2.30;99.90;;;0.50;100.00;101672.38;2569104;30;137554;-39
2021/10/17 03:00:19;;;;;;;9.98;5.47;;;2.40;99.90;;;0.51;100.00;101674.09;2565525;30;139722;-39
2021/10/17 03:02:50;;;;;;;9.73;4.63;;;2.40;99.90;;;0.51;100.00;101682.13;2567806;30;138997;-39
2021/10/17 03:05:18;;;;;;;11.93;5.50;;;2.40;99.90;;;0.47;100.00;101673.50;2568111;30;138264;-40
2021/10/17 03:07:47;;;;;;;9.60;5.30;;;2.40;99.90;;;0.47;100.00;101678.88;2565368;30;139321;-39
2021/10/17 03:10:15;;;;;;;9.48;5.38;;;2.40;99.90;;;0.47;100.00;101672.63;2568179;30;139913;-39
2021/10/17 03:12:43;;;;;;;11.27;5.57;;;2.40;99.90;;;0.46;100.00;101676.31;2568742;30;137296;-39
2021/10/17 03:15:17;;;;;;;8.73;4.82;;;2.40;99.90;;;0.47;100.00;101678.88;2564234;30;140074;-39
2021/10/17 03:17:44;;;;;;;14.43;5.70;;;2.40;99.90;;;0.52;100.00;101681.16;2567430;30;139261;-39
2021/10/17 03:20:12;;;;;;;11.77;5.50;;;2.40;99.90;;;0.56;100.00;101675.44;2567026;30;139673;-39
2021/10/17 03:22:44;;;;;;;10.80;5.47;;;2.40;99.90;;;0.56;100.00;101672.75;2567757;30;139203;-39
2021/10/17 03:25:12;;;;;;;10.20;5.40;;;2.40;99.90;;;0.63;100.00;101673.09;2567841;30;139860;-39
2021/10/17 03:27:40;;;;;;;10.90;5.32;;;2.50;99.90;;;0.67;100.00;101662.97;2566297;30;140124;-39
2021/10/17 03:30:14;;;;;;;11.07;5.53;;;2.50;99.90;;;0.73;100.00;101664.25;2567408;30;139430;-39
2021/10/17 03:32:41;;;;;;;10.70;5.28;;;2.60;99.90;;;0.78;100.00;101662.91;2567271;30;139377;-40
2021/10/17 03:35:09;;;;;;;9.88;5.78;;;2.60;99.90;;;0.82;100.00;101658.97;2568567;30;136787;-39
2021/10/17 03:37:37;;;;;;;8.45;5.53;;;2.60;99.90;;;0.87;100.00;101661.31;2566795;30;136826;-39
2021/10/17 03:40:05;;;;;;;9.00;5.53;;;2.70;99.90;;;0.94;100.00;101659.78;2567118;30;138397;-39
2021/10/17 03:42:35;;;;;;;9.55;5.28;;;2.70;99.90;;;0.99;100.00;101664.78;2567072;30;138719;-39
2021/10/17 03:45:04;;;;;;;10.13;5.75;;;2.80;99.90;;;1.03;100.00;101663.56;2566795;30;138375;-39
2021/10/17 03:47:34;;;;;;;8.65;5.53;;;2.90;99.90;;;1.09;100.00;101657.66;2566539;30;136711;-39
2021/10/17 03:50:04;;;;;;;10.98;5.72;;;2.90;99.90;;;1.12;100.00;101659.25;2564447;30;139453;-39
2021/10/17 03:52:33;;;;;;;10.60;5.80;;;2.90;99.90;;;1.18;100.00;101655.16;2565979;30;138523;-39
2021/10/17 03:55:04;;;;;;;12.18;6.00;;;3.00;99.90;;;1.18;100.00;101649.78;2566532;30;139196;-39
2021/10/17 03:57:31;;;;;;;9.18;5.75;;;3.00;99.90;;;1.26;100.00;101650.84;2566198;30;138321;-39
2021/10/17 04:00:00;;;;;;;11.40;5.68;;;3.10;99.90;;;1.33;100.00;101650.34;2566188;30;140353;-39
2021/10/17 04:02:28;;;;;;;9.57;5.85;;;3.10;99.90;;;1.42;100.00;101646.84;2567967;30;138620;-39
2021/10/17 04:04:56;;;;;;;13.60;6.20;;;3.20;99.90;;;1.48;100.00;101646.31;2565885;30;137664;-39
2021/10/17 04:07:28;;;;;;;13.13;7.00;;;3.20;99.90;;;1.69;100.00;101646.28;2568198;30;138826;-39
2021/10/17 04:09:57;;;;;;;12.15;6.47;;;3.40;99.90;;;1.83;100.00;101645.06;2564620;30;140391;-39
2021/10/17 04:12:24;;;;;;;12.63;6.45;;;3.50;99.90;;;1.91;100.00;101646.25;2567155;30;138917;-39
2021/10/17 04:15:04;;;;;;;16.00;7.82;;;3.60;99.90;;;2.09;100.00;101644.59;2565573;30;138871;-39
2021/10/17 04:17:37;;;;;;;13.38;7.75;;;3.80;99.90;;;2.19;100.00;101647.31;2567389;30;138600;-39
2021/10/17 04:20:05;;;;;;;14.68;7.60;;;3.90;99.90;;;2.28;100.00;101651.03;2566572;30;138446;-39
2021/10/17 04:22:34;;;;;;;14.93;7.57;;;4.00;99.90;;;2.38;100.00;101643.84;2568110;30;138441;-39
2021/10/17 04:25:02;;;;;;;;;;;4.10;99.90;;;2.48;100.00;101648.41;2568169;30;140097;-39
2021/10/17 04:27:30;;;;;;;13.80;7.63;;;4.20;99.90;;;2.60;100.00;101636.50;2566694;30;137453;-40
2021/10/17 04:29:58;;;;;;;17.08;8.15;;;4.30;99.90;;;2.66;100.00;101646.75;2566730;30;140716;-40
2021/10/17 04:32:27;;;;;;;14.15;7.75;;;4.40;99.90;;;2.78;100.00;101639.34;2568044;30;137845;-39
2021/10/17 04:34:54;;;;;;;16.20;8.07;;;4.50;99.90;;;2.86;100.00;101646.72;2567496;30;140301;-39
2021/10/17 04:37:22;;;;;;;20.15;8.52;;;4.60;99.90;;;2.97;100.00;101643.03;2567459;30;138121;-39
2021/10/17 04:39:53;;;;;;;23.75;10.02;;;4.70;99.90;;;3.09;100.00;101646.44;2567794;30;139083;-39
2021/10/17 04:42:20;;;;;;;19.42;9.95;;;4.80;99.90;;;3.20;100.00;101645.44;2566239;30;137272;-39
2021/10/17 04:44:48;;;;;;;14.15;8.25;;;4.90;99.90;;;3.26;100.00;101647.56;2566996;30;140857;-39
2021/10/17 04:47:16;;;;;;;16.63;9.27;;;4.90;99.90;;;3.29;100.00;101649.97;2565785;30;139461;-39
2021/10/17 04:49:43;;;;;;;13.23;8.48;;;5.00;99.90;;;3.34;100.00;101645.03;2568415;30;138302;-39
2021/10/17 04:52:11;;;;;;;16.40;8.48;;;5.00;99.90;;;3.37;100.00;101649.25;2568796;30;137428;-39
2021/10/17 04:54:38;;;;;;;18.42;8.55;;;5.10;99.90;;;3.39;100.00;101647.25;2568787;30;139465;-39
2021/10/17 04:57:07;;;;;;;16.65;8.63;;;5.10;99.90;;;3.42;100.00;101653.22;2566727;30;138309;-39
2021/10/17 04:59:36;;;;;;;17.70;8.55;;;5.10;99.90;;;3.45;100.00;101649.41;2567597;30;139843;-39
2021/10/17 05:02:04;;;;;;;13.85;8.07;;;5.10;99.90;;;3.48;100.00;101654.50;2567795;30;139887;-40
2021/10/17 05:04:31;;;;;;;19.80;8.75;;;5.20;99.90;;;3.58;100.00;101662.56;2567961;30;139129;-40
2021/10/17 05:06:59;;;;;;;15.45;8.98;;;5.20;99.90;;;3.60;100.00;101663.28;2567377;30;136719;-39
2021/10/17 05:09:27;;;;;;;13.45;7.97;;;5.30;99.90;;;3.61;100.00;101648.78;2569248;30;140064;-39
2021/10/17 05:11:54;;;;;;;12.32;7.38;;;5.30;99.90;;;3.61;100.00;101654.19;2567052;30;138832;-40
2021/10/17 05:14:22;;;;;;;13.02;7.15;;;5.30;99.90;;;3.67;100.00;101648.19;2567030;30;138239;-39
2021/10/17 05:16:49;;;;;;;14.55;8.25;;;5.30;99.90;;;3.68;100.00;101646.34;2567332;30;138837;-39
2021/10/17 05:19:17;;;;;;;15.75;8.40;;;5.40;99.90;;;3.73;100.00;101649.47;2567635;30;137226;-39
2021/10/17 05:21:46;;;;;;;12.60;7.53;;;5.40;99.90;;;3.77;100.00;101639.22;2568488;30;138330;-39
2021/10/17 05:24:14;;;;;;;;;;;5.50;99.90;;;3.82;100.00;101645.88;2567734;30;137175;-39
2021/10/17 05:26:42;;;;;;;16.50;8.63;;;5.50;99.90;;;3.86;100.00;101639.19;2568319;30;137964;-40
2021/10/17 05:29:09;;;;;;;15.57;7.82;;;5.50;99.90;;;3.92;100.00;101642.28;2565948;30;140108;-39
2021/10/17 05:31:37;;;;;;;16.67;8.32;;;5.60;99.90;;;3.97;100.00;101640.84;2567642;30;139111;-39
2021/10/17 05:34:05;;;;;;;15.77;8.25;;;5.70;99.90;;;4.02;100.00;101648.50;2567492;30;140518;-39
2021/10/17 05:36:34;;;;;;;15.57;7.57;;;5.70;99.90;;;4.04;100.00;101646.50;2568360;30;138627;-39
2021/10/17 05:39:04;;;;;;;15.25;8.50;;;5.70;99.90;;;4.08;100.00;101641.63;2567906;30;139732;-39
2021/10/17 05:41:31;;;;;;;16.02;8.45;;;5.70;99.90;;;4.10;100.00;101639.63;2567349;30;138975;-39
2021/10/17 05:43:59;;;;;;;17.90;8.65;;;5.80;99.90;;;4.11;100.00;101636.78;2567159;30;139062;-39
2021/10/17 05:46:27;;;;;;;15.02;8.18;;;5.80;99.90;;;4.13;100.00;101645.59;2567863;30;136963;-39
2021/10/17 05:48:55;;;;;;;;;;;5.80;99.90;;;4.18;100.00;101643.28;2568152;30;139621;-39
2021/10/17 05:51:23;;;;;;;13.60;7.72;;;5.80;99.90;;;4.21;100.00;101642.16;2567911;30;138039;-39
2021/10/17 05:53:51;;;;;;;12.93;7.90;;;5.90;99.90;;;4.23;100.00;101645.56;2564892;30;138468;-39
2021/10/17 05:56:19;;;;;;;15.25;7.97;;;5.90;99.90;;;4.25;100.00;101648.13;2567381;30;139124;-40
2021/10/17 05:58:47;;;;;;;12.90;7.32;;;5.90;99.90;;;4.23;100.00;101652.78;2567044;30;140545;-39
2021/10/17 06:01:16;;;;;;;14.07;7.38;;;5.90;99.90;;;4.22;100.00;101660.06;2567789;30;138454;-39
2021/10/17 06:03:55;;;;;;;14.55;7.68;;;5.90;99.90;;;4.21;100.00;101661.06;2566725;30;140136;-39
2021/10/17 06:06:42;;;;;;;15.48;6.88;;;5.90;99.90;;;4.18;100.00;101662.19;2566271;30;137473;-39
2021/10/17 06:09:12;;;;;;;14.02;7.05;;;5.90;99.90;;;4.22;100.00;101670.00;2567857;30;138372;-39
2021/10/17 06:11:41;;;;;;;12.32;7.03;;;5.90;99.90;;;4.21;100.00;101673.69;2567837;30;137524;-39
2021/10/17 06:14:10;;;;;;;13.98;7.05;;;5.90;99.90;;;4.22;100.00;101680.81;2567721;30;139180;-39
2021/10/17 06:16:38;;;;;;;12.35;6.45;;;5.90;99.90;;;4.25;100.00;101688.63;2568060;30;138853;-39
2021/10/17 06:19:05;;;;;;;13.10;7.43;;;5.90;99.90;;;4.26;100.00;101684.94;2568515;30;137830;-39
2021/10/17 06:21:49;;;;;;;13.85;6.95;;;5.90;99.90;;;4.31;100.00;101691.56;2567793;30;137512;-39
2021/10/17 06:24:17;;;;;;;13.35;6.78;;;6.00;99.90;;;4.35;100.00;101694.84;2568143;30;139052;-39
2021/10/17 06:26:45;;;;;;;13.82;6.63;;;6.00;99.90;;;4.36;100.00;101696.53;2566487;30;139519;-39
2021/10/17 06:29:13;;;;;;;13.95;6.82;;;6.00;99.90;;;4.38;100.00;101688.28;2568561;30;140177;-40
2021/10/17 06:31:43;;;;;;;11.02;6.53;;;6.00;99.90;;;4.39;100.00;101695.41;2565549;30;138661;-39
2021/10/17 06:34:11;;;;;;;10.60;6.32;;;6.10;99.90;;;4.40;100.00;101694.41;2568005;30;140064;-39
2021/10/17 06:36:40;;;;;;;13.57;6.70;;;6.10;99.90;;;4.41;100.00;101694.22;2567516;30;139261;-39
2021/10/17 06:39:07;;;;;;;14.77;6.60;;;6.10;99.90;;;4.45;100.00;101694.78;2568929;30;138562;-39
2021/10/17 06:41:35;;;;;;;11.30;6.57;;;6.10;99.90;;;4.45;100.00;101703.72;2566459;30;138833;-39
2021/10/17 06:44:13;;;;;;;;;;;6.10;99.90;;;4.50;100.00;101718.63;2567848;30;140484;-39
2021/10/17 06:46:42;;;;;;;13.10;6.32;;;6.10;99.90;;;4.54;100.00;101728.16;2567544;30;138039;-40
2021/10/17 06:49:10;;;;;;;11.40;6.13;;;6.20;99.90;;;4.58;100.00;101729.56;2567488;30;138246;-39
2021/10/17 06:51:37;;;;;;;9.85;5.50;;;6.20;99.90;;;4.63;100.00;101727.25;2566632;30;138639;-40
2021/10/17 06:54:06;;;;;;;11.95;6.75;;;6.30;99.90;;;4.68;100.00;101719.53;2567770;30;140007;-39
2021/10/17 06:56:33;;;;;;;10.93;6.43;;;6.30;99.90;;;4.73;100.00;101730.75;2565689;30;138382;-40
2021/10/17 06:59:02;;;;;;;13.00;6.68;;;6.40;99.90;;;4.73;100.00;101725.34;2566386;30;138447;-40
2021/10/17 07:01:32;;;;;;;12.85;6.68;;;6.40;99.90;;;4.85;100.00;101738.66;2566952;30;138888;-39
2021/10/17 07:03:59;;;;;;;10.63;6.75;;;6.40;99.90;;;4.93;100.00;101737.91;2567964;30;138062;-40
2021/10/17 07:06:35;;;;;;;16.05;7.47;;;6.50;99.90;;;5.02;100.00;101739.69;2567371;30;140025;-39
2021/10/17 07:09:09;;;;;;;12.52;7.00;;;6.60;99.90;;;5.11;100.00;101737.91;2566723;30;140320;-39
2021/10/17 07:11:47;;;;;;;11.93;7.03;;;6.70;99.90;;;5.16;100.00;101736.41;2568801;30;138475;-40
2021/10/17 07:14:29;;;;;;;14.88;6.75;;;6.70;99.90;;;5.22;100.00;101743.06;2565641;30;139043;-39
2021/10/17 07:17:05;;;;;;;13.20;7.15;;;6.80;99.90;;;5.26;100.00;101741.75;2566920;30;139123;-39
2021/10/17 07:19:34;;;;;;;16.92;7.63;;;6.80;99.90;;;5.31;100.00;101747.59;2567532;30;139281;-39
2021/10/17 07:22:02;;;;;;;13.23;7.63;;;6.90;99.90;;;5.38;100.00;101736.13;2567066;30;138767;-39
2021/10/17 07:24:36;;;;;;;17.33;8.45;;;6.90;99.90;;;5.46;100.00;101742.47;2567743;30;139479;-40
2021/10/17 07:27:04;;;;;;;13.90;7.45;;;7.00;99.90;;;5.52;100.00;101740.97;2566780;30;138723;-39
2021/10/17 07:29:31;;;;;;;13.77;7.90;;;7.10;99.90;;;5.56;100.00;101744.22;2567910;30;138296;-39
2021/10/17 07:31:59;;;;;;;14.18;8.05;;;7.10;99.90;;;5.62;100.00;101738.19;2566929;30;136727;-39
2021/10/17 07:34:27;;;;;;;17.48;7.93;;;7.20;99.90;;;5.65;100.00;101737.84;2567119;30;138507;-39
2021/10/17 07:36:55;;;;;;;12.45;7.38;;;7.20;99.90;;;5.72;100.00;101740.78;2567695;30;137945;-39
2021/10/17 07:39:28;;;;;;;13.27;7.80;;;7.20;99.90;;;5.76;100.00;101747.59;2567499;30;139777;-40
2021/10/17 07:41:58;;;;;;;14.55;7.38;;;7.30;99.90;;;5.87;100.00;101755.47;2566974;30;140210;-39
2021/10/17 07:44:27;;;;;;;13.73;7.43;;;7.40;99.90;;;5.99;100.00;101749.78;2567868;30;139895;-40
2021/10/17 07:46:59;;;;;;;14.50;7.32;;;7.50;99.90;;;6.07;100.00;101752.56;2567411;30;137361;-39
2021/10/17 07:49:30;;;;;;;14.18;7.57;;;7.50;99.90;;;6.15;100.00;101749.06;2567301;30;138295;-39
2021/10/17 07:51:58;;;;;;;17.63;8.02;;;7.60;99.90;;;6.19;100.00;101754.00;2567699;30;139746;-40
2021/10/17 07:54:27;;;;;;;10.70;6.95;;;7.60;99.90;;;6.24;100.00;101748.13;2567086;30;139781;-39
2021/10/17 07:56:57;;;;;;;13.70;7.72;;;7.70;99.90;;;6.33;100.00;101751.69;2566109;30;138451;-40
2021/10/17 07:59:30;;;;;;;12.35;7.93;;;7.80;99.90;;;6.43;100.00;101755.16;2567674;30;139991;-39
2021/10/17 08:01:59;;;;;;;13.55;7.95;;;7.90;99.90;;;6.53;100.00;101754.16;2567788;30;138469;-40
2021/10/17 08:04:38;;;;;;;13.35;7.18;;;8.00;99.90;;;6.66;100.00;101746.44;2564427;30;138668;-39
2021/10/17 08:07:18;;;;;;;12.13;6.93;;;8.10;99.90;;;6.80;100.00;101754.94;2564860;30;138548;-39
2021/10/17 08:09:47;;;;;;;13.85;7.75;;;8.20;99.90;;;6.89;100.00;101752.09;2567034;30;139607;-40
2021/10/17 08:12:15;;;;;;;;;;;8.30;99.90;;;6.65;100.00;101695.94;2577056;30;139470;-38
2021/10/17 08:14:43;;;;;;;16.38;7.65;;;8.40;99.90;;;7.09;100.00;101745.50;2569094;30;137979;-37
2021/10/17 08:17:13;;;;;;;13.15;7.63;;;8.50;99.90;;;7.11;97.86;101748.91;2570878;30;139349;-38
2021/10/17 08:20:08;;;;;;;12.90;7.55;;;8.50;99.90;;;7.22;97.26;101756.75;2568892;30;137074;-38
2021/10/17 08:22:37;;;;;;;17.73;7.93;;;8.60;99.90;;;7.24;95.03;101760.16;2568389;30;139123;-38
2021/10/17 08:25:09;;;;;;;14.55;7.65;;;8.70;99.90;;;7.32;95.92;101753.88;2567009;30;139861;-38
2021/10/17 08:27:41;;;;;;;14.02;7.47;;;8.70;99.90;;;7.34;95.92;101755.38;2569104;30;138596;-38
2021/10/17 08:30:11;;;;;;;10.98;7.25;;;8.80;99.90;;;7.44;95.75;101759.84;2568779;30;138435;-38
2021/10/17 08:32:50;;;;;;;11.98;6.60;;;8.80;99.90;;;7.54;95.38;101765.94;2569174;30;138858;-38
2021/10/17 08:35:18;;;;;;;18.75;7.57;;;8.90;99.90;;;7.58;93.19;101772.72;2568055;30;139400;-38
2021/10/17 08:37:46;;;;;;;;;;;9.00;99.90;;;7.65;93.22;101759.31;2568168;30;139948;-37
2021/10/17 08:40:33;;;;;;;14.18;6.95;;;9.00;99.90;;;7.70;90.59;101751.50;2567294;30;140391;-38
2021/10/17 08:43:33;;;;;;;11.63;6.10;;;9.10;99.90;;;7.84;92.37;101760.00;2568707;30;136771;-38
2021/10/17 08:46:12;;;;;;;12.80;6.72;;;9.20;99.90;;;7.97;92.04;101771.16;2567808;30;139194;-38
2021/10/17 08:48:55;;;;;;;12.23;6.45;;;9.30;99.90;;;8.10;92.36;101765.19;2569027;30;138838;-38
2021/10/17 08:51:27;;;;;;;11.23;6.82;;;9.40;99.90;;;8.19;91.58;101763.31;2567892;30;139539;-38
2021/10/17 08:54:02;;;;;;;12.95;7.07;;;9.50;99.90;;;8.15;87.90;101759.25;2569887;30;139061;-38
2021/10/17 08:56:33;;;;;;;14.32;6.60;;;9.50;99.90;;;8.15;87.89;101768.25;2569282;30;139571;-38
2021/10/17 08:59:01;;;;;;;10.52;6.30;;;9.50;99.90;;;8.18;88.67;101754.31;2568900;30;137536;-38
2021/10/17 09:01:42;;;;;;;12.13;6.15;;;9.60;99.90;;;8.21;86.04;101764.81;2567705;30;139730;-38
2021/10/17 09:04:15;;;;;;;11.25;6.13;;;9.60;99.90;;;8.33;86.72;101759.03;2568789;30;139064;-38
2021/10/17 09:06:55;;;;;;;13.82;6.22;;;9.70;99.90;;;8.46;87.04;101762.03;2565926;30;137310;-38
2021/10/17 09:09:23;;;;;;;13.43;6.47;;;9.80;99.90;;;8.59;86.22;101758.78;2567345;30;139400;-38
2021/10/17 09:11:58;;;;;;;14.07;6.70;;;9.90;99.90;;;8.80;88.81;101753.78;2566328;30;138198;-38
2021/10/17 09:14:30;;;;;;;12.48;6.18;;;10.00;99.90;;;8.94;86.98;101755.72;2569559;30;136777;-38
2021/10/17 09:16:58;;;;;;;11.90;6.82;;;10.20;99.90;;;9.01;83.93;101753.16;2570127;30;138078;-38
2021/10/17 09:19:30;;;;;;;;;;;10.30;99.90;;;8.99;81.89;101752.47;2566806;30;137596;-38
2021/10/17 09:22:08;;;;;;;11.30;6.20;;;10.30;99.90;;;9.06;82.78;101754.31;2567949;30;138257;-38
2021/10/17 09:24:46;;;;;;;11.00;5.90;;;10.40;99.90;;;9.10;82.37;101753.94;2567500;30;136771;-37
2021/10/17 09:27:16;;;;;;;11.50;5.70;;;10.40;99.90;;;9.19;81.86;101758.31;2568792;30;137321;-38
2021/10/17 09:29:54;;;;;;;10.02;5.60;;;10.50;99.90;;;9.33;83.52;101759.41;2568371;30;136787;-38
2021/10/17 09:32:28;;;;;;;12.02;6.55;;;10.60;99.90;;;9.33;80.49;101759.41;2569121;30;139154;-38
2021/10/17 09:35:00;;;;;;;10.45;5.88;;;10.70;99.90;;;9.45;81.76;101757.09;2569194;30;137642;-38
2021/10/17 09:37:43;;;;;;;12.30;5.75;;;10.70;99.90;;;9.57;79.06;101752.06;2571319;30;139916;-38
2021/10/17 09:40:29;;;;;;;;;;;10.80;99.90;;;9.69;80.55;101747.88;2571583;30;136732;-38
2021/10/17 09:43:23;;;;;;;11.32;6.38;;;10.90;99.90;;;9.74;80.58;101747.31;2567446;30;137229;-38
2021/10/17 09:46:15;;;;;;;12.23;5.88;;;11.00;99.90;;;9.81;79.82;101736.53;2570142;30;136936;-38
2021/10/17 09:48:44;;;;;;;13.45;6.68;;;11.00;99.90;;;9.91;80.48;101739.81;2570246;30;138363;-38
2021/10/17 09:51:21;;;;;;;11.00;5.88;;;11.10;99.90;;;10.06;81.07;101727.06;2570513;30;137363;-38
2021/10/17 09:53:52;;;;;;;10.60;6.43;;;11.20;99.90;;;10.20;78.56;101735.44;2570320;30;138303;-38
2021/10/17 09:56:38;;;;;;;13.25;6.60;;;11.40;99.90;;;10.22;77.06;101734.22;2568690;30;137598;-38
2021/10/17 09:59:10;;;;;;;12.05;6.45;;;11.50;99.90;;;10.32;77.29;101735.81;2570083;30;137573;-38
2021/10/17 10:01:42;;;;;;;13.25;6.72;;;11.50;99.90;;;10.44;78.62;101731.63;2570621;30;137529;-38
2021/10/17 10:04:12;;;;;;;11.98;6.57;;;11.60;99.90;;;10.59;77.35;101730.75;2570980;30;137653;-38
2021/10/17 10:06:40;;;;;;;11.90;6.03;;;11.80;99.90;;;10.73;77.47;101734.47;2569100;30;137519;-38
2021/10/17 10:09:10;;;;;;;13.30;6.32;;;11.80;99.90;;;10.83;77.94;101736.91;2570030;30;139506;-38
2021/10/17 10:11:38;;;;;;;14.00;6.75;;;12.00;99.90;;;10.87;77.42;101735.47;2568433;30;136931;-38
2021/10/17 10:14:11;;;;;;;13.57;6.03;;;12.00;99.90;;;11.01;75.84;101739.25;2570596;30;138049;-38
2021/10/17 10:16:41;;;;;;;13.32;5.70;;;12.20;99.90;;;11.16;76.41;101731.81;2572026;30;136670;-38
2021/10/17 10:19:13;;;;;;;10.73;5.68;;;12.20;99.90;;;11.34;75.50;101736.81;2570427;30;139469;-38
2021/10/17 10:21:41;;;;;;;12.00;5.70;;;12.40;99.90;;;11.53;76.55;101734.47;2568478;30;137518;-38
2021/10/17 10:24:12;;;;;;;12.85;5.80;;;12.60;99.90;;;11.62;72.18;101736.03;2570727;30;140160;-38